createdAt,value
2019-05-23T00:01:21.740Z,57.37
2019-05-23T00:03:53.066Z,57.12
2019-05-23T00:06:30.667Z,57.07
2019-05-23T00:08:58.508Z,56.96
2019-05-23T00:11:32.843Z,56.93
2019-05-23T00:14:01.344Z,57.01
2019-05-23T00:16:28.190Z,57.08
2019-05-23T00:18:56.178Z,57.15
2019-05-23T00:21:24.033Z,57.19
2019-05-23T00:23:51.942Z,57.15
2019-05-23T00:26:19.525Z,57.31
2019-05-23T00:28:47.982Z,57.12
2019-05-23T00:31:19.195Z,57.08
2019-05-23T00:33:47.781Z,57.11
2019-05-23T00:36:15.931Z,57.01
2019-05-23T00:38:42.745Z,57.16
2019-05-23T00:41:10.134Z,57.10
2019-05-23T00:43:37.985Z,57.18
2019-05-23T00:46:05.801Z,57.13
2019-05-23T00:48:32.835Z,57.33
2019-05-23T00:50:59.685Z,57.35
2019-05-23T00:53:28.148Z,57.05
2019-05-23T00:55:56.034Z,57.22
2019-05-23T00:58:23.409Z,57.19
2019-05-23T01:00:50.943Z,57.19
2019-05-23T01:03:18.926Z,57.32
2019-05-23T01:05:46.197Z,57.19
2019-05-23T01:08:13.779Z,57.11
2019-05-23T01:10:40.669Z,57.52
2019-05-23T01:13:09.160Z,57.42
2019-05-23T01:15:35.958Z,57.17
2019-05-23T01:18:03.992Z,57.19
2019-05-23T01:20:35.438Z,57.02
2019-05-23T01:23:03.023Z,57.16
2019-05-23T01:25:29.821Z,57.24
2019-05-23T01:27:56.595Z,57.35
2019-05-23T01:30:28.152Z,57.14
2019-05-23T01:32:59.729Z,57.33
2019-05-23T01:35:27.865Z,57.23
2019-05-23T01:37:55.977Z,57.23
2019-05-23T01:40:22.853Z,57.35
2019-05-23T01:42:51.382Z,57.37
2019-05-23T01:45:19.649Z,57.29
2019-05-23T01:47:47.805Z,57.71
2019-05-23T01:50:15.732Z,57.42
2019-05-23T01:52:42.585Z,57.44
2019-05-23T01:55:10.433Z,57.33
2019-05-23T01:57:37.515Z,57.13
2019-05-23T02:00:10.616Z,57.32
2019-05-23T02:02:34.462Z,57.37
2019-05-23T02:05:01.252Z,57.48
2019-05-23T02:07:29.217Z,57.35
2019-05-23T02:09:56.023Z,57.48
2019-05-23T02:12:23.662Z,57.42
2019-05-23T02:14:50.537Z,57.46
2019-05-23T02:17:18.254Z,57.57
2019-05-23T02:19:45.806Z,57.54
2019-05-23T02:22:13.169Z,57.45
2019-05-23T02:24:40.919Z,57.56
2019-05-23T02:27:08.580Z,57.58
2019-05-23T02:29:36.487Z,57.61
2019-05-23T02:32:03.492Z,57.47
2019-05-23T02:34:30.663Z,57.42
2019-05-23T02:36:58.683Z,57.16
2019-05-23T02:39:45.449Z,57.41
2019-05-23T02:42:16.876Z,57.58
2019-05-23T02:44:44.400Z,57.36
2019-05-23T02:47:15.845Z,57.74
2019-05-23T02:49:42.676Z,57.45
2019-05-23T02:52:11.347Z,57.69
2019-05-23T02:54:40.657Z,57.64
2019-05-23T02:57:07.906Z,57.40
2019-05-23T02:59:35.490Z,57.78
2019-05-23T03:02:04.036Z,57.62
2019-05-23T03:04:31.100Z,57.86
2019-05-23T03:06:59.284Z,57.70
2019-05-23T03:09:26.446Z,57.85
2019-05-23T03:11:53.239Z,57.67
2019-05-23T03:14:20.168Z,57.45
2019-05-23T03:16:47.072Z,57.56
2019-05-23T03:19:15.538Z,57.45
2019-05-23T03:21:42.990Z,57.58
2019-05-23T03:24:10.968Z,57.22
2019-05-23T03:26:39.487Z,57.53
2019-05-23T03:29:07.973Z,56.91
2019-05-23T03:31:36.545Z,57.72
2019-05-23T03:34:05.123Z,57.74
2019-05-23T03:36:32.056Z,57.58
2019-05-23T03:38:59.035Z,57.32
2019-05-23T03:41:25.873Z,57.55
2019-05-23T03:43:52.859Z,57.26
2019-05-23T03:46:20.245Z,57.66
2019-05-23T03:48:47.245Z,57.03
2019-05-23T03:51:14.452Z,57.62
2019-05-23T03:53:41.344Z,57.50
2019-05-23T03:56:10.074Z,57.48
2019-05-23T03:58:37.753Z,57.23
2019-05-23T04:01:06.381Z,57.56
2019-05-23T04:03:34.797Z,57.84
2019-05-23T04:06:02.144Z,57.83
2019-05-23T04:08:29.817Z,57.65
2019-05-23T04:10:56.713Z,57.22
2019-05-23T04:13:23.599Z,57.44
2019-05-23T04:15:50.535Z,57.23
2019-05-23T04:18:17.437Z,57.07
2019-05-23T04:20:44.580Z,57.50
2019-05-23T04:23:12.559Z,57.47
2019-05-23T04:25:39.447Z,57.32
2019-05-23T04:28:06.489Z,57.81
2019-05-23T04:30:33.384Z,57.85
2019-05-23T04:33:00.300Z,57.71
2019-05-23T04:35:27.617Z,57.60
2019-05-23T04:37:54.999Z,57.40
2019-05-23T04:40:22.568Z,57.41
2019-05-23T04:42:49.425Z,56.89
2019-05-23T04:45:16.609Z,57.80
2019-05-23T04:47:43.466Z,57.73
2019-05-23T04:50:11.937Z,57.41
2019-05-23T04:52:38.844Z,57.57
2019-05-23T04:55:06.534Z,56.85
2019-05-23T04:57:33.885Z,57.33
2019-05-23T05:00:00.692Z,57.01
2019-05-23T05:02:27.572Z,57.74
2019-05-23T05:04:54.525Z,57.43
2019-05-23T05:07:21.876Z,57.58
2019-05-23T05:09:49.130Z,57.47
2019-05-23T05:12:16.657Z,57.70
2019-05-23T05:14:43.468Z,57.48
2019-05-23T05:17:11.649Z,57.09
2019-05-23T05:19:38.526Z,57.70
2019-05-23T05:22:05.406Z,57.67
2019-05-23T05:24:32.269Z,57.65
2019-05-23T05:26:59.111Z,57.81
2019-05-23T05:29:26.026Z,57.38
2019-05-23T05:31:53.544Z,57.81
2019-05-23T05:34:20.541Z,57.80
2019-05-23T05:36:48.031Z,57.57
2019-05-23T05:39:15.703Z,57.73
2019-05-23T05:41:43.244Z,57.49
2019-05-23T05:44:11.818Z,57.84
2019-05-23T05:46:39.358Z,57.30
2019-05-23T05:49:06.898Z,57.80
2019-05-23T05:51:33.791Z,57.77
2019-05-23T05:54:01.313Z,57.71
2019-05-23T05:56:28.116Z,57.11
2019-05-23T05:58:55.139Z,57.62
2019-05-23T06:01:33.216Z,57.49
2019-05-23T06:03:50.865Z,57.24
2019-05-23T06:06:31.374Z,57.48
2019-05-23T06:08:59.883Z,57.44
2019-05-23T06:11:26.723Z,57.52
2019-05-23T06:13:53.677Z,57.29
2019-05-23T06:16:20.990Z,57.41
2019-05-23T06:18:48.016Z,57.54
2019-05-23T06:21:16.621Z,57.48
2019-05-23T06:23:45.746Z,57.83
2019-05-23T06:26:16.367Z,57.72
2019-05-23T06:28:43.721Z,57.55
2019-05-23T06:31:11.309Z,57.90
2019-05-23T06:33:38.332Z,57.77
2019-05-23T06:36:06.080Z,57.87
2019-05-23T06:38:33.266Z,57.91
2019-05-23T06:41:01.623Z,57.74
2019-05-23T06:43:28.468Z,57.70
2019-05-23T06:45:55.536Z,57.72
2019-05-23T06:48:24.285Z,57.79
2019-05-23T06:50:51.379Z,57.77
2019-05-23T06:53:18.244Z,57.62
2019-05-23T06:55:45.038Z,57.68
2019-05-23T06:58:12.483Z,56.59
2019-05-23T07:00:39.478Z,55.88
2019-05-23T07:03:06.328Z,55.93
2019-05-23T07:05:33.474Z,55.82
2019-05-23T07:08:00.250Z,52.69
2019-05-23T07:10:27.516Z,52.25
2019-05-23T07:12:54.282Z,53.68
2019-05-23T07:15:21.074Z,54.21
2019-05-23T07:17:47.860Z,53.46
2019-05-23T07:20:15.525Z,54.57
2019-05-23T07:22:42.315Z,55.00
2019-05-23T07:25:09.353Z,54.81
2019-05-23T07:27:36.645Z,54.34
2019-05-23T07:30:04.015Z,54.68
2019-05-23T07:32:30.791Z,53.09
2019-05-23T07:34:57.589Z,53.96
2019-05-23T07:37:24.437Z,55.09
2019-05-23T07:39:51.317Z,55.06
2019-05-23T07:42:18.372Z,54.73
2019-05-23T07:44:48.619Z,53.77
2019-05-23T07:47:15.975Z,53.41
2019-05-23T07:49:42.780Z,52.99
2019-05-23T07:52:09.557Z,52.28
2019-05-23T07:54:41.059Z,52.92
2019-05-23T07:57:09.516Z,51.09
2019-05-23T07:59:36.318Z,50.38
2019-05-23T08:02:04.736Z,50.39
2019-05-23T08:04:31.543Z,50.18
2019-05-23T08:06:58.476Z,49.50
2019-05-23T08:09:25.322Z,48.03
2019-05-23T08:11:52.471Z,46.67
2019-05-23T08:14:19.252Z,47.16
2019-05-23T08:16:46.205Z,47.13
2019-05-23T08:19:19.347Z,45.17
2019-05-23T08:21:41.503Z,44.15
2019-05-23T08:24:09.564Z,44.60
2019-05-23T08:26:36.678Z,43.93
2019-05-23T08:29:24.683Z,45.11
2019-05-23T08:31:32.148Z,45.93
2019-05-23T08:33:59.286Z,46.10
2019-05-23T08:36:26.388Z,46.00
2019-05-23T08:38:53.336Z,46.51
2019-05-23T08:41:20.155Z,47.23
2019-05-23T08:43:46.985Z,47.78
2019-05-23T08:46:15.074Z,48.33
2019-05-23T08:48:42.094Z,48.69
2019-05-23T08:51:09.077Z,49.55
2019-05-23T08:53:36.032Z,49.66
2019-05-23T08:56:04.961Z,50.06
2019-05-23T08:58:31.611Z,50.49
2019-05-23T09:00:58.595Z,50.45
2019-05-23T09:03:25.447Z,50.83
2019-05-23T09:05:52.235Z,51.19
2019-05-23T09:08:19.811Z,51.44
2019-05-23T09:10:46.588Z,51.75
2019-05-23T09:13:14.070Z,51.92
2019-05-23T09:15:40.955Z,52.17
2019-05-23T09:18:07.713Z,52.42
2019-05-23T09:20:34.768Z,52.50
2019-05-23T09:23:01.962Z,52.50
2019-05-23T09:25:29.114Z,52.60
2019-05-23T09:27:56.096Z,52.62
2019-05-23T09:30:23.685Z,52.62
2019-05-23T09:32:50.471Z,52.74
2019-05-23T09:35:21.391Z,52.68
2019-05-23T09:37:46.243Z,52.78
2019-05-23T09:40:13.035Z,52.83
2019-05-23T09:42:39.810Z,53.01
2019-05-23T09:45:06.607Z,53.06
2019-05-23T09:47:33.752Z,52.98
2019-05-23T09:50:00.553Z,53.06
2019-05-23T09:52:28.480Z,53.11
2019-05-23T09:54:55.290Z,53.13
2019-05-23T09:57:22.185Z,53.06
2019-05-23T09:59:49.047Z,53.30
2019-05-23T10:02:16.269Z,53.20
2019-05-23T10:04:43.136Z,53.40
2019-05-23T10:07:10.110Z,53.31
2019-05-23T10:09:36.889Z,53.45
2019-05-23T10:12:03.696Z,53.74
2019-05-23T10:14:40.010Z,53.60
2019-05-23T10:17:06.892Z,53.75
2019-05-23T10:19:33.744Z,53.99
2019-05-23T10:22:00.526Z,53.81
2019-05-23T10:24:27.309Z,53.93
2019-05-23T10:26:54.156Z,53.76
2019-05-23T10:29:21.102Z,53.64
2019-05-23T10:31:47.891Z,53.60
2019-05-23T10:34:14.674Z,53.58
2019-05-23T10:36:41.441Z,53.81
2019-05-23T10:39:08.223Z,53.64
2019-05-23T10:41:35.086Z,53.82
2019-05-23T10:44:01.916Z,53.83
2019-05-23T10:46:28.774Z,53.64
2019-05-23T10:48:55.611Z,53.73
2019-05-23T10:51:22.430Z,53.53
2019-05-23T10:53:49.253Z,53.47
2019-05-23T10:56:20.351Z,53.45
2019-05-23T10:58:45.309Z,53.47
2019-05-23T11:01:12.987Z,53.39
2019-05-23T11:03:39.806Z,53.40
2019-05-23T11:06:15.748Z,53.44
2019-05-23T11:08:36.437Z,53.63
2019-05-23T11:11:03.515Z,53.74
2019-05-23T11:13:30.494Z,53.78
2019-05-23T11:15:57.279Z,53.94
2019-05-23T11:18:24.424Z,54.24
2019-05-23T11:20:51.182Z,53.95
2019-05-23T11:23:19.603Z,53.68
2019-05-23T11:25:46.404Z,54.05
2019-05-23T11:28:13.238Z,54.26
2019-05-23T11:30:41.747Z,53.98
2019-05-23T11:33:09.317Z,54.03
2019-05-23T11:35:36.201Z,54.10
2019-05-23T11:38:03.147Z,54.12
2019-05-23T11:40:33.767Z,54.15
2019-05-23T11:43:00.869Z,54.18
2019-05-23T11:45:29.299Z,54.17
2019-05-23T11:47:56.083Z,54.20
2019-05-23T11:50:22.867Z,54.14
2019-05-23T11:52:49.724Z,54.10
2019-05-23T11:55:16.539Z,54.24
2019-05-23T11:57:43.367Z,54.84
2019-05-23T12:00:12.255Z,54.73
2019-05-23T12:02:43.889Z,55.04
2019-05-23T12:05:15.200Z,54.91
2019-05-23T12:07:42.031Z,54.48
2019-05-23T12:10:09.198Z,55.20
2019-05-23T12:12:36.032Z,55.02
2019-05-23T12:15:03.542Z,55.10
2019-05-23T12:17:32.017Z,55.03
2019-05-23T12:19:58.989Z,54.95
2019-05-23T12:22:26.584Z,55.06
2019-05-23T12:24:53.529Z,55.02
2019-05-23T12:27:20.399Z,55.04
2019-05-23T12:29:47.367Z,55.05
2019-05-23T12:32:14.601Z,55.09
2019-05-23T12:34:41.514Z,55.20
2019-05-23T12:37:18.996Z,55.04
2019-05-23T12:39:36.873Z,55.26
2019-05-23T12:42:03.720Z,55.11
2019-05-23T12:44:30.531Z,55.16
2019-05-23T12:46:57.679Z,55.16
2019-05-23T12:49:29.433Z,55.09
2019-05-23T12:51:57.930Z,55.42
2019-05-23T12:54:26.006Z,55.44
2019-05-23T12:56:53.298Z,55.42
2019-05-23T12:59:20.074Z,55.34
2019-05-23T13:01:48.351Z,55.33
2019-05-23T13:04:15.130Z,55.60
2019-05-23T13:06:42.337Z,55.49
2019-05-23T13:09:09.243Z,55.53
2019-05-23T13:11:36.137Z,55.46
2019-05-23T13:14:03.152Z,55.13
2019-05-23T13:16:30.388Z,55.59
2019-05-23T13:18:57.331Z,55.44
2019-05-23T13:21:24.227Z,55.38
2019-05-23T13:23:51.629Z,55.55
2019-05-23T13:26:18.520Z,55.60
2019-05-23T13:28:45.539Z,55.44
2019-05-23T13:31:12.543Z,55.79
2019-05-23T13:33:39.489Z,55.47
2019-05-23T13:36:07.037Z,55.49
2019-05-23T13:38:34.355Z,55.37
2019-05-23T13:41:01.249Z,55.51
2019-05-23T13:43:29.113Z,55.36
2019-05-23T13:45:56.091Z,55.24
2019-05-23T13:48:27.158Z,55.37
2019-05-23T13:50:51.751Z,55.51
2019-05-23T13:53:18.915Z,55.79
2019-05-23T13:55:46.221Z,55.76
2019-05-23T13:58:13.461Z,55.83
2019-05-23T14:00:40.314Z,55.62
2019-05-23T14:03:07.106Z,55.63
2019-05-23T14:05:34.264Z,55.72
2019-05-23T14:08:11.603Z,55.64
2019-05-23T14:10:30.323Z,55.69
2019-05-23T14:12:57.244Z,55.61
2019-05-23T14:15:43.928Z,55.48
2019-05-23T14:18:12.578Z,55.51
2019-05-23T14:20:39.496Z,55.48
2019-05-23T14:23:24.138Z,55.53
2019-05-23T14:25:51.813Z,55.66
2019-05-23T14:28:18.971Z,55.79
2019-05-23T14:30:59.706Z,55.83
2019-05-23T14:33:28.276Z,55.53
2019-05-23T14:35:56.765Z,55.63
2019-05-23T14:38:30.763Z,55.68
2019-05-23T14:40:53.095Z,55.38
2019-05-23T14:43:21.564Z,55.49
2019-05-23T14:45:52.903Z,55.59
2019-05-23T14:48:27.381Z,55.61
2019-05-23T14:50:55.942Z,55.58
2019-05-23T14:53:24.524Z,55.82
2019-05-23T14:55:51.611Z,55.59
2019-05-23T14:58:18.691Z,55.65
2019-05-23T15:00:47.238Z,55.47
2019-05-23T15:03:14.375Z,55.69
2019-05-23T15:05:41.172Z,55.60
2019-05-23T15:08:08.100Z,55.48
2019-05-23T15:10:35.166Z,55.27
2019-05-23T15:13:01.950Z,55.78
2019-05-23T15:15:29.141Z,55.86
2019-05-23T15:17:56.107Z,55.66
2019-05-23T15:20:23.527Z,55.66
2019-05-23T15:22:50.363Z,55.72
2019-05-23T15:25:17.215Z,55.66
2019-05-23T15:27:46.676Z,55.76
2019-05-23T15:30:13.508Z,55.74
2019-05-23T15:32:40.413Z,55.70
2019-05-23T15:35:07.222Z,55.66
2019-05-23T15:37:34.273Z,55.84
2019-05-23T15:40:01.080Z,55.65
2019-05-23T15:42:27.926Z,55.71
2019-05-23T15:44:54.970Z,55.82
2019-05-23T15:47:23.521Z,55.95
2019-05-23T15:49:51.945Z,55.77
2019-05-23T15:52:38.728Z,55.90
2019-05-23T15:55:07.140Z,55.82
2019-05-23T15:57:35.572Z,55.42
2019-05-23T16:00:16.041Z,55.31
2019-05-23T16:02:44.461Z,55.65
2019-05-23T16:05:12.893Z,55.71
2019-05-23T16:07:39.910Z,55.71
2019-05-23T16:10:07.059Z,55.76
2019-05-23T16:12:33.997Z,55.87
2019-05-23T16:15:00.963Z,55.86
2019-05-23T16:17:28.310Z,55.77
2019-05-23T16:19:55.096Z,55.78
2019-05-23T16:22:21.897Z,55.73
2019-05-23T16:24:48.690Z,55.78
2019-05-23T16:27:15.544Z,55.80
2019-05-23T16:29:42.535Z,55.82
2019-05-23T16:32:09.360Z,55.72
2019-05-23T16:34:36.786Z,55.77
2019-05-23T16:37:03.560Z,55.79
2019-05-23T16:39:45.932Z,55.77
2019-05-23T16:41:59.005Z,55.68
2019-05-23T16:44:25.805Z,55.68
2019-05-23T16:46:52.603Z,55.62
2019-05-23T16:49:19.378Z,55.58
2019-05-23T16:51:46.167Z,55.53
2019-05-23T16:54:13.114Z,55.51
2019-05-23T16:56:41.530Z,55.60
2019-05-23T16:59:09.966Z,55.52
2019-05-23T17:01:56.064Z,55.46
2019-05-23T17:04:17.508Z,55.48
2019-05-23T17:06:45.985Z,55.41
2019-05-23T17:09:23.749Z,55.48
2019-05-23T17:12:01.115Z,55.43
2019-05-23T17:14:46.048Z,55.38
2019-05-23T17:17:56.982Z,55.32
2019-05-23T17:20:19.011Z,55.33
2019-05-23T17:22:40.412Z,55.34
2019-05-23T17:25:25.315Z,55.30
2019-05-23T17:28:02.779Z,55.42
2019-05-23T17:30:33.873Z,55.35
2019-05-23T17:33:01.026Z,55.37
2019-05-23T17:35:27.792Z,55.35
2019-05-23T17:37:54.590Z,55.31
2019-05-23T17:40:24.769Z,55.29
2019-05-23T17:42:49.904Z,55.31
2019-05-23T17:45:17.062Z,55.24
2019-05-23T17:47:43.893Z,55.33
2019-05-23T17:50:10.720Z,55.24
2019-05-23T17:52:37.597Z,55.15
2019-05-23T17:55:04.440Z,55.19
2019-05-23T17:57:32.007Z,55.19
2019-05-23T17:59:58.789Z,55.12
2019-05-23T18:02:25.940Z,55.21
2019-05-23T18:04:52.728Z,55.25
2019-05-23T18:07:20.251Z,55.21
2019-05-23T18:09:47.043Z,55.25
2019-05-23T18:12:13.848Z,55.19
2019-05-23T18:14:40.991Z,55.33
2019-05-23T18:17:07.766Z,55.38
2019-05-23T18:19:35.426Z,55.37
2019-05-23T18:22:02.773Z,55.39
2019-05-23T18:24:29.589Z,55.43
2019-05-23T18:26:56.815Z,55.10
2019-05-23T18:29:23.675Z,56.13
2019-05-23T18:31:50.908Z,55.52
2019-05-23T18:34:18.254Z,48.65
2019-05-23T18:36:45.021Z,50.96
2019-05-23T18:39:13.482Z,47.68
2019-05-23T18:41:40.323Z,45.68
2019-05-23T18:44:07.473Z,44.46
2019-05-23T18:46:37.637Z,44.33
2019-05-23T18:49:04.409Z,44.26
2019-05-23T18:51:31.454Z,45.50
2019-05-23T18:53:58.218Z,44.78
2019-05-23T18:56:25.015Z,45.75
2019-05-23T18:58:51.868Z,46.78
2019-05-23T19:01:19.800Z,46.08
2019-05-23T19:03:46.652Z,46.75
2019-05-23T19:06:13.503Z,47.24
2019-05-23T19:08:40.771Z,45.32
2019-05-23T19:11:20.374Z,44.51
2019-05-23T19:13:36.332Z,44.04
2019-05-23T19:16:03.178Z,44.82
2019-05-23T19:18:30.852Z,46.07
2019-05-23T19:20:58.045Z,47.50
2019-05-23T19:23:25.225Z,50.60
2019-05-23T19:25:52.088Z,51.29
2019-05-23T19:28:19.030Z,51.36
2019-05-23T19:30:45.822Z,53.15
2019-05-23T19:33:13.296Z,55.18
2019-05-23T19:35:40.232Z,55.77
2019-05-23T19:38:07.196Z,57.05
2019-05-23T19:40:34.346Z,57.82
2019-05-23T19:43:01.122Z,56.87
2019-05-23T19:45:28.457Z,54.04
2019-05-23T19:47:55.248Z,53.48
2019-05-23T19:50:22.587Z,52.57
2019-05-23T19:52:49.704Z,53.16
2019-05-23T19:55:16.496Z,54.27
2019-05-23T19:57:43.377Z,53.98
2019-05-23T20:00:15.882Z,53.31
2019-05-23T20:02:47.421Z,52.79
2019-05-23T20:05:15.872Z,53.27
2019-05-23T20:07:42.725Z,53.57
2019-05-23T20:10:10.047Z,53.51
2019-05-23T20:12:36.911Z,53.64
2019-05-23T20:15:03.937Z,53.79
2019-05-23T20:17:30.735Z,53.77
2019-05-23T20:19:57.652Z,54.05
2019-05-23T20:22:25.300Z,54.04
2019-05-23T20:24:52.700Z,53.96
2019-05-23T20:27:19.550Z,53.97
2019-05-23T20:29:46.354Z,54.02
2019-05-23T20:32:13.347Z,54.35
2019-05-23T20:34:40.242Z,54.29
2019-05-23T20:37:07.067Z,54.58
2019-05-23T20:39:33.988Z,54.75
2019-05-23T20:42:10.861Z,54.83
2019-05-23T20:44:30.353Z,54.78
2019-05-23T20:46:57.204Z,54.78
2019-05-23T20:49:27.042Z,54.92
2019-05-23T20:51:52.785Z,54.88
2019-05-23T20:54:19.604Z,54.96
2019-05-23T20:56:46.439Z,54.95
2019-05-23T20:59:13.299Z,55.05
2019-05-23T21:01:41.276Z,54.78
2019-05-23T21:04:08.074Z,55.07
2019-05-23T21:06:34.989Z,55.10
2019-05-23T21:09:01.771Z,55.17
2019-05-23T21:11:28.666Z,55.18
2019-05-23T21:13:55.790Z,55.23
2019-05-23T21:16:22.910Z,55.11
2019-05-23T21:18:50.348Z,55.15
2019-05-23T21:21:17.408Z,55.26
2019-05-23T21:23:44.230Z,55.30
2019-05-23T21:26:11.142Z,55.18
2019-05-23T21:28:37.949Z,55.22
2019-05-23T21:31:06.419Z,55.15
2019-05-23T21:33:33.227Z,55.23
2019-05-23T21:36:00.031Z,55.22
2019-05-23T21:38:27.064Z,55.22
2019-05-23T21:40:53.941Z,55.30
2019-05-23T21:43:20.768Z,55.27
2019-05-23T21:45:47.643Z,55.22
2019-05-23T21:48:14.544Z,55.27
2019-05-23T21:50:41.464Z,55.18
2019-05-23T21:53:08.247Z,55.14
2019-05-23T21:55:35.065Z,55.30
2019-05-23T21:58:01.898Z,55.17
2019-05-23T22:00:46.831Z,55.33
2019-05-23T22:03:14.778Z,55.29
2019-05-23T22:05:41.572Z,55.09
2019-05-23T22:08:08.373Z,55.25
2019-05-23T22:10:35.144Z,55.16
2019-05-23T22:13:04.723Z,55.11
2019-05-23T22:15:30.454Z,55.34
2019-05-23T22:17:57.278Z,55.18
2019-05-23T22:20:24.152Z,55.23
2019-05-23T22:22:51.037Z,55.19
2019-05-23T22:25:17.908Z,55.24
2019-05-23T22:27:44.727Z,55.16
2019-05-23T22:30:11.662Z,55.25
2019-05-23T22:32:38.498Z,55.24
2019-05-23T22:35:06.934Z,55.17
2019-05-23T22:37:33.747Z,55.26
2019-05-23T22:40:00.622Z,55.37
2019-05-23T22:42:27.547Z,55.15
2019-05-23T22:44:54.503Z,55.22
2019-05-23T22:47:21.395Z,55.26
2019-05-23T22:49:48.195Z,55.25
2019-05-23T22:52:14.980Z,55.14
2019-05-23T22:54:41.803Z,55.17
2019-05-23T22:57:08.595Z,55.21
2019-05-23T22:59:35.441Z,55.34
2019-05-23T23:02:02.646Z,55.14
2019-05-23T23:04:29.473Z,55.24
2019-05-23T23:06:56.351Z,55.17
2019-05-23T23:09:23.171Z,55.27
2019-05-23T23:11:50.035Z,55.29
2019-05-23T23:14:17.008Z,55.33
2019-05-23T23:16:43.953Z,55.19
2019-05-23T23:19:10.884Z,55.48
2019-05-23T23:21:38.046Z,55.31
2019-05-23T23:24:04.906Z,55.42
2019-05-23T23:26:31.733Z,55.35
2019-05-23T23:28:58.994Z,55.31
2019-05-23T23:31:25.873Z,55.51
2019-05-23T23:33:52.958Z,55.37
2019-05-23T23:36:19.769Z,55.39
2019-05-23T23:38:46.567Z,55.23
2019-05-23T23:41:13.404Z,55.47
2019-05-23T23:43:56.244Z,55.33
2019-05-23T23:46:27.114Z,55.43
2019-05-23T23:49:12.164Z,55.54
2019-05-23T23:51:57.067Z,55.44
2019-05-23T23:54:41.985Z,55.55
2019-05-23T23:57:26.646Z,55.58
2019-05-23T23:59:52.816Z,55.43
